Time;durP1;ratioP1;P1;durP2;ratioP2;P2;SDS_P1;SDS_P2;PMS_P1;PMS_P2;Temp;Humidity;BMP_temperature;BMP_pressure;BME280_temperature;BME280_humidity;BME280_pressure;Samples;Min_cycle;Max_cycle;Signal;HPM_P1;HPM_P2
2023/05/20 00:00:03;;;;;;;9.53;5.20;;;;;;;8.80;98.04;98305.75;6245866;28;20368;-50
2023/05/20 00:03:06;;;;;;;5.13;4.70;;;;;;;8.82;97.99;98294.91;6240137;28;20248;-51
2023/05/20 00:06:09;;;;;;;5.40;4.90;;;;;;;8.82;98.34;98300.22;6243227;28;20265;-52
2023/05/20 00:09:11;;;;;;;5.20;4.70;;;;;;;8.69;97.66;98306.44;6245402;28;20237;-52
2023/05/20 00:12:14;;;;;;;5.13;4.73;;;;;;;8.60;97.50;98313.84;6246742;28;20224;-50
2023/05/20 00:15:16;;;;;;;6.60;5.57;;;;;;;8.61;98.06;98312.81;6224068;28;20223;-48
2023/05/20 00:18:18;;;;;;;7.37;5.77;;;;;;;8.71;98.10;98310.50;6245534;28;20219;-52
2023/05/20 00:21:21;;;;;;;6.00;5.47;;;;;;;8.64;98.07;98306.28;6246766;28;20235;-52
2023/05/20 00:24:24;;;;;;;6.60;5.90;;;;;;;8.58;97.82;98307.16;6245381;28;20687;-50
2023/05/20 00:27:26;;;;;;;7.00;5.53;;;;;;;8.54;97.85;98304.09;6245348;28;20604;-49
2023/05/20 00:30:29;;;;;;;10.93;6.07;;;;;;;8.52;97.97;98301.66;6249384;28;20711;-52
2023/05/20 00:33:31;;;;;;;7.30;6.60;;;;;;;8.53;97.99;98300.63;6242684;28;20594;-48
2023/05/20 00:36:35;;;;;;;6.80;6.10;;;;;;;8.22;98.34;98247.44;6250043;28;20604;-52
2023/05/20 00:39:37;;;;;;;7.63;6.43;;;;;;;8.55;98.33;98310.22;6228216;28;20225;-53
2023/05/20 00:42:40;;;;;;;8.00;6.60;;;;;;;8.53;98.10;98303.28;6245602;28;20242;-53
2023/05/20 00:45:42;;;;;;;8.50;6.80;;;;;;;8.48;97.86;98303.09;6250166;28;20665;-51
2023/05/20 00:48:45;;;;;;;12.17;8.53;;;;;;;8.48;98.47;98297.78;6243392;28;20239;-51
2023/05/20 00:51:48;;;;;;;12.10;9.27;;;;;;;8.50;98.34;98294.91;6246275;28;20250;-51
2023/05/20 00:54:51;;;;;;;10.30;9.20;;;;;;;8.42;97.89;98288.03;6243139;28;20236;-52
2023/05/20 00:57:54;;;;;;;11.30;9.87;;;;;;;8.43;98.21;98278.22;6244967;28;20909;-53
2023/05/20 01:00:57;;;;;;;10.70;8.33;;;;;;;8.37;98.14;98263.94;6248594;28;20227;-51
2023/05/20 01:04:00;;;;;;;12.37;9.37;;;;;;;8.26;97.53;98267.25;6251699;28;20227;-53
2023/05/20 01:07:05;;;;;;;11.83;10.50;;;;;;;8.29;98.22;98256.22;6243832;28;20228;-53
2023/05/20 01:10:08;;;;;;;13.77;11.33;;;;;;;8.38;98.26;98254.16;6242444;28;20238;-51
2023/05/20 01:13:16;;;;;;;17.40;11.37;;;;;;;8.41;98.63;98257.19;6236516;28;20268;-51
2023/05/20 01:16:22;;;;;;;11.43;9.87;;;;;;;8.34;98.25;98258.22;6243526;28;20274;-52
2023/05/20 01:19:37;;;;;;;11.13;9.23;;;;;;;8.20;98.13;98252.16;6250479;28;20310;-52
2023/05/20 01:22:52;;;;;;;19.47;13.13;;;;;;;8.25;98.25;98252.34;6241101;28;20249;-53
2023/05/20 01:25:54;;;;;;;16.23;13.73;;;;;;;8.34;98.89;98255.56;6224056;28;20227;-52
2023/05/20 01:29:03;;;;;;;19.40;14.80;;;;;;;8.35;98.80;98251.88;6231295;28;20240;-54
2023/05/20 01:32:10;;;;;;;17.53;13.00;;;;;;;8.25;98.11;98245.19;6241815;28;20249;-52
2023/05/20 01:35:16;;;;;;;16.10;12.97;;;;;;;8.19;98.48;98251.38;6227585;28;20707;-53
2023/05/20 01:38:19;;;;;;;16.03;12.37;;;;;;;8.17;98.69;98256.03;6212946;28;20698;-52
2023/05/20 01:41:25;;;;;;;16.47;11.87;;;;;;;8.19;98.27;98248.69;6241312;28;20232;-53
2023/05/20 01:44:28;;;;;;;15.73;11.70;;;;;;;8.21;98.78;98246.63;6241067;28;20232;-52
2023/05/20 01:47:31;;;;;;;14.73;11.77;;;;;;;8.20;98.72;98255.63;6230814;28;20315;-53
2023/05/20 01:50:34;;;;;;;16.23;13.97;;;;;;;8.12;98.04;98253.22;6241091;28;20305;-49
2023/05/20 01:53:38;;;;;;;19.73;15.00;;;;;;;8.10;98.47;98257.94;6242986;28;20231;-49
2023/05/20 01:56:41;;;;;;;20.83;14.97;;;;;;;8.16;98.60;98250.97;6239526;28;20822;-51
2023/05/20 01:59:44;;;;;;;22.87;16.50;;;;;;;8.17;98.63;98252.59;6242560;28;20246;-47
2023/05/20 02:02:47;;;;;;;26.43;18.43;;;;;;;8.16;98.43;98246.47;6232639;28;20328;-50
2023/05/20 02:05:50;;;;;;;21.97;17.50;;;;;;;8.15;98.90;98238.72;6238909;28;20278;-48
2023/05/20 02:08:52;;;;;;;22.33;16.53;;;;;;;8.15;98.85;98242.19;6243376;28;20278;-49
2023/05/20 02:11:54;;;;;;;24.10;16.90;;;;;;;8.15;98.54;98234.22;6238871;28;20243;-48
2023/05/20 02:14:56;;;;;;;21.33;16.60;;;;;;;8.12;98.74;98242.59;6243538;28;20391;-52
2023/05/20 02:17:59;;;;;;;23.07;16.47;;;;;;;8.15;98.96;98244.03;6241863;28;20266;-48
2023/05/20 02:21:04;;;;;;;21.00;15.53;;;;;;;8.17;99.13;98245.44;6239811;28;20378;-49
2023/05/20 02:24:07;;;;;;;18.20;14.60;;;;;;;8.19;99.04;98261.97;6239096;28;20350;-50
2023/05/20 02:27:09;;;;;;;16.53;12.67;;;;;;;8.19;99.20;98250.56;6240262;28;20436;-51
2023/05/20 02:30:13;;;;;;;18.10;13.53;;;;;;;8.15;98.82;98236.88;6244053;28;20272;-48
2023/05/20 02:33:15;;;;;;;17.13;13.70;;;;;;;8.18;98.98;98248.94;6239662;28;20286;-49
2023/05/20 02:36:18;;;;;;;17.53;13.47;;;;;;;8.18;98.57;98256.88;6240333;28;20212;-49
2023/05/20 02:39:20;;;;;;;18.93;14.50;;;;;;;8.19;98.55;98261.16;6240004;28;20229;-51
2023/05/20 02:42:24;;;;;;;17.23;13.63;;;;;;;8.18;98.55;98263.00;6242348;28;20231;-49
2023/05/20 02:45:26;;;;;;;16.13;12.57;;;;;;;8.17;98.58;98263.19;6240522;28;20235;-48
2023/05/20 02:48:28;;;;;;;15.57;12.77;;;;;;;8.16;98.99;98259.72;6221349;28;20594;-50
2023/05/20 02:51:32;;;;;;;19.33;14.53;;;;;;;8.11;98.84;98256.09;6240344;28;20742;-50
2023/05/20 02:54:34;;;;;;;18.23;14.27;;;;;;;8.10;98.52;98257.94;6240650;28;20708;-49
2023/05/20 02:57:37;;;;;;;19.27;15.13;;;;;;;8.08;98.51;98253.84;6228391;28;20228;-49
2023/05/20 03:00:41;;;;;;;15.77;12.87;;;;;;;8.02;98.23;98250.19;6233552;28;20329;-49
2023/05/20 03:03:43;;;;;;;20.10;12.80;;;;;;;8.01;98.72;98257.34;6225942;28;20234;-51
2023/05/20 03:06:46;;;;;;;15.43;12.50;;;;;;;8.04;98.60;98260.63;6225022;28;20373;-48
2023/05/20 03:09:49;;;;;;;13.67;11.53;;;;;;;8.00;98.57;98257.56;6226643;28;20660;-47
2023/05/20 03:12:52;;;;;;;13.30;10.87;;;;;;;7.96;98.49;98259.81;6237788;28;20295;-48
2023/05/20 03:15:54;;;;;;;14.40;12.00;;;;;;;7.95;98.47;98266.16;6235151;28;20729;-47
2023/05/20 03:18:57;;;;;;;15.80;12.63;;;;;;;7.94;98.37;98267.19;6227208;28;20236;-48
2023/05/20 03:22:01;;;;;;;17.67;13.67;;;;;;;7.95;98.21;98275.97;6238229;28;20232;-48
2023/05/20 03:25:04;;;;;;;15.70;13.03;;;;;;;7.90;98.13;98275.78;6222085;28;20326;-48
2023/05/20 03:28:07;;;;;;;15.13;12.37;;;;;;;7.89;98.04;98274.16;6222725;28;20236;-47
2023/05/20 03:31:11;;;;;;;16.80;12.87;;;;;;;7.84;98.34;98271.31;6239458;28;20615;-50
2023/05/20 03:34:14;;;;;;;20.60;14.17;;;;;;;7.83;98.42;98277.63;6238815;28;20270;-48
2023/05/20 03:37:16;;;;;;;14.80;12.37;;;;;;;7.85;98.13;98273.75;6239967;28;20324;-48
2023/05/20 03:40:20;;;;;;;14.43;12.00;;;;;;;7.86;98.45;98278.03;6212497;28;20236;-48
2023/05/20 03:43:24;;;;;;;16.93;13.27;;;;;;;7.79;97.67;98273.78;6222645;28;20239;-49
2023/05/20 03:46:26;;;;;;;21.93;16.73;;;;;;;7.72;97.90;98276.44;6225537;28;20338;-51
2023/05/20 03:49:28;;;;;;;20.03;15.80;;;;;;;7.73;98.64;98270.94;6222834;28;20257;-52
2023/05/20 03:52:31;;;;;;;22.77;16.57;;;;;;;7.75;98.27;98276.03;6223000;28;20305;-51
2023/05/20 03:55:33;;;;;;;24.17;16.47;;;;;;;7.76;98.66;98275.00;6215842;28;20231;-47
2023/05/20 03:58:37;;;;;;;21.67;16.43;;;;;;;7.72;98.41;98276.44;6225762;28;20243;-47
2023/05/20 04:01:40;;;;;;;21.43;16.30;;;;;;;7.75;98.30;98271.53;6215152;28;20621;-50
2023/05/20 04:04:42;;;;;;;24.83;17.23;;;;;;;7.80;98.31;98286.81;6237136;28;20244;-52
2023/05/20 04:07:45;;;;;;;19.10;15.10;;;;;;;7.82;98.25;98281.31;6240722;28;20655;-52
2023/05/20 04:10:48;;;;;;;21.93;16.70;;;;;;;7.83;98.66;98281.13;6237880;28;20707;-53
2023/05/20 04:13:50;;;;;;;21.57;16.73;;;;;;;7.90;98.43;98278.44;6224054;28;20246;-47
2023/05/20 04:16:52;;;;;;;23.20;16.13;;;;;;;7.89;98.37;98267.00;6236921;28;20316;-48
2023/05/20 04:19:56;;;;;;;20.67;15.70;;;;;;;7.98;98.29;98278.22;6224212;28;20238;-48
2023/05/20 04:22:58;;;;;;;22.77;17.00;;;;;;;8.04;98.85;98280.00;6222471;28;20241;-53
2023/05/20 04:26:01;;;;;;;22.97;18.13;;;;;;;8.06;98.69;98270.00;6240740;28;20246;-51
2023/05/20 04:29:05;;;;;;;23.10;17.13;;;;;;;8.08;98.35;98269.78;6236123;28;20239;-48
2023/05/20 04:32:09;;;;;;;19.20;14.83;;;;;;;8.11;98.45;98272.00;6239214;28;20730;-48
2023/05/20 04:35:13;;;;;;;21.33;16.53;;;;;;;8.17;98.71;98279.94;6224829;28;20231;-51
2023/05/20 04:38:18;;;;;;;21.77;17.67;;;;;;;8.23;98.74;98273.81;6235429;28;20232;-52
2023/05/20 04:41:21;;;;;;;20.23;16.27;;;;;;;8.31;98.38;98280.69;6240876;28;20725;-53
2023/05/20 04:44:25;;;;;;;19.97;16.40;;;;;;;8.39;98.50;98277.00;6222772;28;20231;-52
2023/05/20 04:47:30;;;;;;;19.60;15.37;;;;;;;8.45;98.43;98286.78;6223609;28;20235;-49
2023/05/20 04:50:33;;;;;;;22.40;16.30;;;;;;;8.52;98.71;98293.69;6240759;28;20319;-47
2023/05/20 04:53:36;;;;;;;21.63;16.77;;;;;;;8.62;98.61;98308.31;6226957;28;20600;-49
2023/05/20 04:56:39;;;;;;;20.50;16.20;;;;;;;8.74;98.80;98315.41;6242779;28;20610;-49
2023/05/20 04:59:41;;;;;;;18.07;14.70;;;;;;;8.83;98.73;98312.50;6243709;28;20228;-52
2023/05/20 05:02:44;;;;;;;23.97;18.20;;;;;;;8.90;98.62;98310.59;6226082;28;20226;-47
2023/05/20 05:05:47;;;;;;;20.17;15.87;;;;;;;8.98;98.77;98318.31;6224974;28;20246;-48
2023/05/20 05:08:49;;;;;;;25.03;16.80;;;;;;;9.08;99.06;98321.31;6224445;28;20229;-51
2023/05/20 05:11:51;;;;;;;21.60;16.83;;;;;;;9.19;98.93;98315.28;6244359;28;20599;-50
2023/05/20 05:14:54;;;;;;;26.43;18.20;;;;;;;9.38;98.90;98310.84;6210331;28;20324;-54
2023/05/20 05:17:56;;;;;;;24.87;17.00;;;;;;;9.54;99.33;98302.28;6219249;28;20636;-54
2023/05/20 05:21:03;;;;;;;18.47;15.30;;;;;;;9.69;99.04;98309.09;6239291;28;20273;-51
2023/05/20 05:24:08;;;;;;;16.70;14.17;;;;;;;9.82;98.99;98299.13;6226736;28;20247;-52
2023/05/20 05:27:10;;;;;;;21.93;16.50;;;;;;;9.93;99.20;98294.91;6240429;28;20687;-50
2023/05/20 05:30:12;;;;;;;18.57;14.90;;;;;;;10.04;98.97;98306.66;6228860;28;20249;-53
2023/05/20 05:33:15;;;;;;;16.63;13.90;;;;;;;10.12;98.94;98298.38;6224195;28;20223;-53
2023/05/20 05:36:17;;;;;;;17.67;14.30;;;;;;;10.19;98.65;98298.28;6234380;28;20253;-51
2023/05/20 05:39:19;;;;;;;17.80;14.23;;;;;;;10.26;98.66;98291.91;6233760;28;20301;-54
2023/05/20 05:42:22;;;;;;;19.17;15.13;;;;;;;10.34;98.33;98290.75;6241823;28;20321;-53
2023/05/20 05:45:25;;;;;;;16.80;14.73;;;;;;;10.43;98.47;98272.63;6245665;28;20234;-54
2023/05/20 05:48:27;;;;;;;17.93;15.37;;;;;;;10.50;98.31;98276.81;6234114;28;20234;-54
2023/05/20 05:51:29;;;;;;;15.57;13.60;;;;;;;10.58;98.73;98278.34;6228221;28;20237;-54
2023/05/20 05:54:32;;;;;;;20.37;15.33;;;;;;;10.64;98.26;98274.78;6217338;28;20231;-55
2023/05/20 05:57:35;;;;;;;20.97;17.80;;;;;;;10.74;98.47;98272.38;6226835;28;20813;-53
2023/05/20 06:00:38;;;;;;;17.93;16.03;;;;;;;10.87;98.70;98276.69;6247192;28;20320;-52
2023/05/20 06:03:40;;;;;;;20.00;15.07;;;;;;;10.93;97.90;98283.75;6240924;28;20259;-54
2023/05/20 06:06:43;;;;;;;17.07;13.83;;;;;;;11.00;97.83;98279.16;6240213;28;20227;-55
2023/05/20 06:09:46;;;;;;;16.10;14.40;;;;;;;11.01;97.93;98248.78;6242156;28;20325;-54
2023/05/20 06:12:49;;;;;;;17.07;13.77;;;;;;;11.24;98.25;98257.84;6236900;28;20779;-53
2023/05/20 06:15:52;;;;;;;16.07;13.67;;;;;;;11.36;98.20;98258.66;6238003;28;20378;-54
2023/05/20 06:18:56;;;;;;;20.90;15.30;;;;;;;11.45;97.87;98262.59;6242324;28;20234;-52
2023/05/20 06:21:58;;;;;;;15.13;13.57;;;;;;;11.56;97.42;98272.44;6239598;28;20243;-52
2023/05/20 06:25:01;;;;;;;14.47;13.03;;;;;;;11.74;97.13;98273.38;6240929;28;20238;-53
2023/05/20 06:28:04;;;;;;;13.90;12.47;;;;;;;11.87;96.71;98275.78;6239338;28;20242;-53
2023/05/20 06:31:07;;;;;;;14.40;12.40;;;;;;;12.01;96.59;98279.81;6224573;28;20604;-52
2023/05/20 06:34:12;;;;;;;15.30;13.03;;;;;;;12.19;96.99;98267.38;6238506;28;20342;-50
2023/05/20 06:37:15;;;;;;;14.83;12.70;;;;;;;12.38;96.61;98274.16;6242874;28;20231;-54
2023/05/20 06:40:18;;;;;;;14.80;13.30;;;;;;;12.59;96.35;98267.31;6239843;28;20414;-53
2023/05/20 06:43:21;;;;;;;15.57;13.97;;;;;;;12.77;95.67;98255.59;6225225;28;20234;-55
2023/05/20 06:46:36;;;;;;;13.57;12.07;;;;;;;12.91;94.71;98254.22;6222755;28;20289;-55
2023/05/20 06:49:44;;;;;;;15.33;13.73;;;;;;;13.08;93.98;98251.56;6234388;28;20603;-55
2023/05/20 06:52:50;;;;;;;14.00;12.57;;;;;;;13.20;92.51;98240.75;6240278;28;20640;-50
2023/05/20 06:55:56;;;;;;;12.47;11.27;;;;;;;13.33;92.58;98249.28;6221792;28;20594;-52
2023/05/20 06:59:00;;;;;;;12.00;10.80;;;;;;;13.42;91.87;98252.38;6234162;28;20322;-53
2023/05/20 07:02:03;;;;;;;11.13;9.97;;;;;;;13.56;91.47;98252.84;6238395;28;20227;-54
2023/05/20 07:05:06;;;;;;;15.13;11.70;;;;;;;13.65;91.20;98252.16;6219125;28;20228;-52
2023/05/20 07:08:09;;;;;;;11.40;10.23;;;;;;;13.76;89.94;98250.44;6239297;28;20231;-54
2023/05/20 07:11:13;;;;;;;12.63;10.20;;;;;;;13.88;90.15;98255.66;6240509;28;20741;-54
2023/05/20 07:14:16;;;;;;;11.47;9.80;;;;;;;13.72;89.50;98216.34;6214760;28;20248;-55
2023/05/20 07:17:21;;;;;;;11.33;10.23;;;;;;;14.08;89.38;98253.22;6204217;28;20242;-52
2023/05/20 07:20:24;;;;;;;12.07;10.10;;;;;;;14.17;87.88;98243.69;6223549;28;20235;-55
2023/05/20 07:23:27;;;;;;;10.30;9.37;;;;;;;14.44;87.99;98253.63;6239366;28;20225;-54
2023/05/20 07:26:35;;;;;;;10.80;9.03;;;;;;;14.63;87.78;98259.47;6241211;28;20755;-53
2023/05/20 07:29:38;;;;;;;10.80;9.67;;;;;;;14.78;80.47;98256.09;6230708;28;20944;-53
2023/05/20 07:32:41;;;;;;;10.23;8.60;;;;;;;14.89;78.61;98252.47;6217896;28;20235;-52
2023/05/20 07:35:44;;;;;;;10.80;9.13;;;;;;;15.06;77.25;98250.44;6239328;28;20228;-53
2023/05/20 07:38:47;;;;;;;9.40;8.50;;;;;;;15.04;76.33;98246.41;6243773;28;20274;-52
2023/05/20 07:42:05;;;;;;;10.73;8.77;;;;;;;14.98;76.76;98244.78;6221493;28;20655;-52
2023/05/20 07:45:08;;;;;;;9.13;8.23;;;;;;;14.94;77.00;98250.63;6225176;28;20204;-52
2023/05/20 07:48:11;;;;;;;9.60;8.33;;;;;;;15.01;77.08;98249.59;6238469;28;20230;-53
2023/05/20 07:51:14;;;;;;;9.03;8.13;;;;;;;15.18;76.59;98245.72;6221764;28;20599;-53
2023/05/20 07:54:16;;;;;;;8.00;7.20;;;;;;;15.33;77.63;98250.41;6241776;28;20216;-50
2023/05/20 07:57:21;;;;;;;12.83;11.33;;;;;;;15.36;74.91;98241.81;6239739;28;20230;-54
2023/05/20 08:00:24;;;;;;;12.20;10.80;;;;;;;15.28;74.13;98245.00;6236515;28;20228;-52
2023/05/20 08:03:26;;;;;;;13.50;10.67;;;;;;;15.26;75.70;98244.41;6236664;28;20220;-52
2023/05/20 08:06:38;;;;;;;11.37;10.17;;;;;;;15.21;76.35;98234.47;6217264;28;20234;-52
2023/05/20 08:09:44;;;;;;;14.80;12.47;;;;;;;15.35;74.59;98245.56;6210916;28;20234;-53
2023/05/20 08:12:47;;;;;;;15.53;10.90;;;;;;;15.46;74.83;98244.56;6238920;28;20230;-51
2023/05/20 08:15:52;;;;;;;13.63;11.53;;;;;;;15.60;74.25;98244.91;6237060;28;20318;-55
2023/05/20 08:18:55;;;;;;;14.33;12.83;;;;;;;15.77;73.58;98230.53;6238785;28;20860;-51
2023/05/20 08:21:58;;;;;;;14.90;12.90;;;;;;;15.88;72.29;98229.50;6244604;28;20266;-53
2023/05/20 08:25:00;;;;;;;11.27;10.17;;;;;;;15.96;72.34;98226.31;6224680;28;20243;-52
2023/05/20 08:28:05;;;;;;;14.53;12.40;;;;;;;16.11;71.52;98212.94;6241229;28;20675;-53
2023/05/20 08:31:10;;;;;;;13.50;11.80;;;;;;;16.31;71.77;98222.13;6242195;28;20244;-52
2023/05/20 08:34:13;;;;;;;14.00;11.13;;;;;;;16.32;71.11;98216.47;6241881;28;20731;-52
2023/05/20 08:37:15;;;;;;;11.47;10.20;;;;;;;16.36;71.83;98209.50;6241788;28;20828;-54
2023/05/20 08:40:20;;;;;;;12.87;11.57;;;;;;;16.41;71.31;98208.69;6225650;28;20283;-52
2023/05/20 08:43:23;;;;;;;12.93;11.63;;;;;;;16.39;71.78;98203.56;6243222;28;20283;-53
2023/05/20 08:46:26;;;;;;;9.33;8.30;;;;;;;16.38;74.93;98207.34;6243475;28;20231;-52
2023/05/20 08:49:31;;;;;;;14.40;10.40;;;;;;;16.38;74.93;98211.91;6225630;28;20698;-54
2023/05/20 08:52:34;;;;;;;11.07;9.87;;;;;;;16.49;75.08;98210.84;6242473;28;20330;-53
2023/05/20 08:55:46;;;;;;;10.20;9.20;;;;;;;16.66;74.56;98205.22;6242472;28;20927;-51
2023/05/20 08:58:49;;;;;;;9.70;8.70;;;;;;;16.77;73.94;98209.56;6229693;28;20263;-53
2023/05/20 09:01:51;;;;;;;13.43;11.70;;;;;;;16.88;71.31;98205.78;6241091;28;20219;-53
2023/05/20 09:04:54;;;;;;;12.10;10.87;;;;;;;17.10;70.14;98199.34;6242046;28;20238;-52
2023/05/20 09:08:10;;;;;;;12.67;10.40;;;;;;;17.11;69.10;98190.19;6242780;28;20231;-54
2023/05/20 09:11:13;;;;;;;9.73;8.83;;;;;;;17.27;68.81;98189.88;6244368;28;20381;-54
2023/05/20 09:14:15;;;;;;;9.83;8.80;;;;;;;17.44;67.62;98183.38;6243902;28;20242;-53
2023/05/20 09:17:17;;;;;;;8.93;8.00;;;;;;;17.57;70.47;98181.97;6235783;28;20569;-51
2023/05/20 09:20:21;;;;;;;13.30;8.07;;;;;;;17.71;72.57;98186.50;6241315;28;20219;-54
2023/05/20 09:23:24;;;;;;;8.97;7.90;;;;;;;17.85;73.80;98188.66;6242228;28;20308;-50
2023/05/20 09:26:28;;;;;;;10.27;8.57;;;;;;;17.88;68.30;98193.47;6242274;28;20574;-55
2023/05/20 09:29:33;;;;;;;10.33;8.47;;;;;;;17.97;65.21;98184.53;6242362;28;20238;-54
2023/05/20 09:32:37;;;;;;;10.60;8.30;;;;;;;17.93;65.61;98186.19;6239829;28;20243;-54
2023/05/20 09:35:40;;;;;;;9.07;8.17;;;;;;;18.11;65.49;98178.53;6243713;28;20230;-53
2023/05/20 09:38:44;;;;;;;12.37;9.07;;;;;;;18.37;64.66;98157.59;6240922;28;20243;-52
2023/05/20 09:42:25;;;;;;;14.80;8.63;;;;;;;18.47;63.38;98174.56;6225529;28;20301;-51
2023/05/20 09:45:27;;;;;;;10.47;8.50;;;;;;;18.47;64.70;98182.66;6226675;28;20262;-54
2023/05/20 09:48:32;;;;;;;11.47;9.07;;;;;;;18.42;63.83;98177.28;6234875;28;20229;-51
2023/05/20 09:51:35;;;;;;;12.53;10.23;;;;;;;18.52;64.33;98179.06;6241283;28;20265;-53
2023/05/20 09:54:38;;;;;;;11.00;9.37;;;;;;;18.38;65.46;98173.53;6242911;28;20235;-52
2023/05/20 09:57:41;;;;;;;10.93;9.30;;;;;;;18.36;66.16;98162.19;6242370;28;20231;-54
2023/05/20 10:00:43;;;;;;;11.20;9.93;;;;;;;18.53;63.89;98172.63;6243340;28;20259;-51
2023/05/20 10:03:46;;;;;;;10.47;9.37;;;;;;;18.62;64.27;98167.41;6240870;28;20285;-52
2023/05/20 10:07:10;;;;;;;15.07;11.37;;;;;;;18.73;65.00;98164.38;6238874;28;20232;-51
2023/05/20 10:10:36;;;;;;;12.67;9.60;;;;;;;18.72;65.84;98157.38;6239108;28;20231;-52
2023/05/20 10:13:38;;;;;;;11.60;10.40;;;;;;;19.08;64.86;98160.56;6235673;28;20768;-50
2023/05/20 10:16:53;;;;;;;10.53;9.47;;;;;;;19.07;64.98;98150.03;6242965;28;20741;-52
2023/05/20 10:20:00;;;;;;;14.47;9.83;;;;;;;19.24;64.65;98147.69;6244762;28;20227;-54
2023/05/20 10:23:19;;;;;;;12.70;9.20;;;;;;;19.21;63.97;98142.06;6241384;28;20263;-55
2023/05/20 10:26:42;;;;;;;11.47;8.67;;;;;;;19.28;65.46;98137.94;6242474;28;20249;-51
2023/05/20 10:29:56;;;;;;;14.03;9.73;;;;;;;19.34;63.89;98144.88;6240799;28;20232;-53
2023/05/20 10:33:04;;;;;;;14.97;11.13;;;;;;;19.07;64.00;98137.34;6244000;28;20587;-53
2023/05/20 10:36:09;;;;;;;12.97;10.27;;;;;;;19.29;65.11;98142.25;6240125;28;20315;-54
2023/05/20 10:39:18;;;;;;;14.90;12.80;;;;;;;19.21;63.40;98134.78;6240591;28;20227;-54
2023/05/20 10:42:29;;;;;;;10.23;9.23;;;;;;;18.86;65.50;98137.81;6242782;28;20241;-52
2023/05/20 10:45:36;;;;;;;12.17;10.17;;;;;;;18.83;66.73;98139.19;6242574;28;20686;-53
2023/05/20 10:48:43;;;;;;;11.67;10.47;;;;;;;19.04;66.25;98134.41;6239803;28;20726;-54
2023/05/20 10:51:47;;;;;;;11.90;9.63;;;;;;;19.35;64.95;98137.56;6240131;28;20281;-50
2023/05/20 10:54:52;;;;;;;12.27;9.83;;;;;;;19.32;64.61;98128.16;6242213;28;20262;-54
2023/05/20 10:57:56;;;;;;;11.63;10.20;;;;;;;19.55;64.22;98123.81;6240414;28;20240;-54
2023/05/20 11:01:00;;;;;;;14.00;11.97;;;;;;;19.69;62.48;98123.97;6224102;28;20237;-54
2023/05/20 11:04:03;;;;;;;14.03;11.10;;;;;;;19.63;63.60;98127.81;6231688;28;20289;-53
2023/05/20 11:07:06;;;;;;;12.67;10.47;;;;;;;19.54;63.61;98133.03;6238574;28;20238;-50
2023/05/20 11:10:09;;;;;;;12.80;11.40;;;;;;;19.40;64.44;98129.41;6240946;28;20239;-51
2023/05/20 11:13:15;;;;;;;12.57;10.90;;;;;;;19.37;64.24;98121.09;6233418;28;20239;-53
2023/05/20 11:16:21;;;;;;;14.37;10.70;;;;;;;19.52;66.29;98115.50;6235934;28;20261;-53
2023/05/20 11:19:23;;;;;;;13.40;10.93;;;;;;;19.66;64.33;98129.97;6232391;28;20235;-53
2023/05/20 11:22:26;;;;;;;12.70;11.40;;;;;;;19.81;64.83;98129.75;6241448;28;20559;-52
2023/05/20 11:25:28;;;;;;;12.67;10.83;;;;;;;19.89;62.89;98114.78;6215338;28;20244;-53
2023/05/20 11:28:32;;;;;;;12.97;11.20;;;;;;;19.94;63.41;98124.72;6240059;28;20699;-53
2023/05/20 11:31:37;;;;;;;12.20;10.80;;;;;;;19.91;63.97;98117.22;6241694;28;20239;-54
2023/05/20 11:34:41;;;;;;;9.97;9.07;;;;;;;20.02;64.13;98114.06;6239831;28;20235;-53
2023/05/20 11:37:43;;;;;;;13.93;11.40;;;;;;;20.17;63.44;98126.56;6243630;28;20233;-53
2023/05/20 11:40:54;;;;;;;12.53;10.97;;;;;;;19.96;63.57;98125.25;6240101;28;20330;-54
2023/05/20 11:43:59;;;;;;;10.40;9.33;;;;;;;19.93;63.28;98118.50;6240838;28;20227;-53
2023/05/20 11:47:02;;;;;;;11.90;10.67;;;;;;;20.08;64.24;98122.91;6237072;28;20232;-54
2023/05/20 11:50:08;;;;;;;11.67;9.77;;;;;;;20.26;63.58;98118.59;6240947;28;20227;-54
2023/05/20 11:53:15;;;;;;;11.37;10.23;;;;;;;20.27;63.04;98123.69;6241915;28;20321;-53
2023/05/20 11:56:20;;;;;;;12.87;9.27;;;;;;;20.40;62.47;98122.16;6240361;28;20255;-51
2023/05/20 11:59:23;;;;;;;10.20;9.03;;;;;;;20.38;63.77;98118.13;6238608;28;20697;-49
2023/05/20 12:02:26;;;;;;;11.00;8.77;;;;;;;20.38;63.89;98107.31;6243337;28;20251;-54
2023/05/20 12:05:28;;;;;;;11.57;8.93;;;;;;;20.35;64.76;98103.28;6244643;28;20722;-53
2023/05/20 12:08:32;;;;;;;8.70;7.90;;;;;;;20.32;63.94;98099.25;6245083;28;20779;-54
2023/05/20 12:11:40;;;;;;;10.83;7.77;;;;;;;20.55;64.58;98107.59;6245865;28;20257;-54
2023/05/20 12:14:43;;;;;;;10.17;8.37;;;;;;;20.75;61.73;98095.63;6244347;28;20592;-53
2023/05/20 12:17:48;;;;;;;10.40;7.57;;;;;;;20.90;61.71;98099.97;6230394;28;20222;-53
2023/05/20 12:20:51;;;;;;;10.40;7.87;;;;;;;21.05;61.08;98083.44;6246756;28;20385;-54
2023/05/20 12:23:56;;;;;;;10.77;8.33;;;;;;;21.14;61.41;98084.34;6244218;28;20223;-54
2023/05/20 12:26:59;;;;;;;9.43;8.20;;;;;;;21.17;58.51;98089.13;6246461;28;20716;-54
2023/05/20 12:30:02;;;;;;;8.90;8.00;;;;;;;21.03;60.00;98088.31;6242964;28;20223;-49
2023/05/20 12:33:05;;;;;;;9.23;8.43;;;;;;;21.07;61.70;98092.03;6246764;28;20761;-50
2023/05/20 12:36:07;;;;;;;9.37;8.37;;;;;;;20.84;60.72;98074.88;6242024;28;20314;-48
2023/05/20 12:39:11;;;;;;;8.37;7.57;;;;;;;21.00;62.69;98078.91;6242674;28;20890;-52
2023/05/20 12:42:13;;;;;;;9.60;7.80;;;;;;;21.17;60.27;98072.09;6241674;28;20208;-49
2023/05/20 12:45:15;;;;;;;10.87;8.57;;;;;;;21.04;59.74;98066.38;6231798;28;20211;-50
2023/05/20 12:48:17;;;;;;;8.80;7.90;;;;;;;21.05;60.68;98078.81;6242951;28;20220;-49
2023/05/20 12:51:20;;;;;;;8.47;6.93;;;;;;;21.19;59.26;98075.31;6244567;28;20687;-51
2023/05/20 12:54:26;;;;;;;7.47;6.67;;;;;;;21.23;59.67;98070.88;6243421;28;20235;-53
2023/05/20 12:57:29;;;;;;;8.03;7.23;;;;;;;21.19;58.35;98065.28;6243257;28;20238;-48
2023/05/20 13:00:31;;;;;;;8.17;7.37;;;;;;;21.00;58.78;98067.28;6244858;28;20700;-53
2023/05/20 13:03:34;;;;;;;10.77;7.40;;;;;;;20.97;61.86;98059.72;6223654;28;20242;-50
2023/05/20 13:06:36;;;;;;;7.60;6.87;;;;;;;20.98;61.74;98051.28;6241035;28;20290;-51
2023/05/20 13:09:39;;;;;;;7.20;6.53;;;;;;;20.91;61.36;98055.53;6243366;28;21744;-48
2023/05/20 13:12:44;;;;;;;8.60;6.67;;;;;;;20.75;57.90;98050.41;6241760;28;20235;-50
2023/05/20 13:15:51;;;;;;;7.07;6.37;;;;;;;20.73;59.46;98058.00;6246058;28;20259;-49
2023/05/20 13:18:53;;;;;;;8.03;6.30;;;;;;;20.63;61.15;98051.97;6245144;28;20247;-48
2023/05/20 13:21:56;;;;;;;9.47;6.20;;;;;;;20.68;60.02;98051.88;6239425;28;20601;-50
2023/05/20 13:24:59;;;;;;;7.30;6.50;;;;;;;20.89;62.68;98045.00;6243915;28;20239;-46
2023/05/20 13:28:02;;;;;;;6.80;6.17;;;;;;;21.01;59.16;98045.28;6229151;28;20583;-48
2023/05/20 13:31:05;;;;;;;7.37;6.67;;;;;;;21.03;60.45;98039.56;6242673;28;20611;-48
2023/05/20 13:34:08;;;;;;;6.20;5.53;;;;;;;21.14;59.34;98043.69;6242459;28;20238;-47
2023/05/20 13:37:10;;;;;;;7.43;6.50;;;;;;;21.37;56.74;98039.97;6242918;28;20322;-50
2023/05/20 13:40:13;;;;;;;7.10;6.47;;;;;;;21.09;58.12;98032.97;6226785;28;20232;-49
2023/05/20 13:43:15;;;;;;;7.97;6.27;;;;;;;21.03;58.98;98023.31;6243500;28;20678;-52
2023/05/20 13:46:18;;;;;;;7.83;5.83;;;;;;;21.05;59.22;98027.34;6245805;28;20285;-51
2023/05/20 13:49:21;;;;;;;6.83;6.13;;;;;;;20.95;58.99;98022.13;6241339;28;20637;-50
2023/05/20 13:52:23;;;;;;;6.27;5.73;;;;;;;20.99;59.65;98020.44;6240277;28;20326;-48
2023/05/20 13:55:25;;;;;;;8.20;6.03;;;;;;;21.08;58.52;98020.50;6244018;28;20239;-48
2023/05/20 13:58:27;;;;;;;8.43;5.60;;;;;;;21.30;59.41;98025.22;6243418;28;20309;-49
2023/05/20 14:01:33;;;;;;;9.57;5.77;;;;;;;21.36;54.75;98011.28;6241205;28;20343;-49
2023/05/20 14:04:38;;;;;;;7.07;6.00;;;;;;;21.22;55.35;98010.47;6241207;28;20345;-50
2023/05/20 14:07:42;;;;;;;7.70;6.30;;;;;;;21.37;55.78;98001.22;6247117;28;20224;-48
2023/05/20 14:10:44;;;;;;;6.97;6.07;;;;;;;21.30;56.73;97990.81;6241324;28;20238;-47
2023/05/20 14:13:46;;;;;;;8.97;5.73;;;;;;;21.34;57.31;97983.69;6244044;28;20638;-49